createdAt,value
2018-10-11T00:00:03.200Z,92.80
2018-10-11T00:02:31.502Z,98.17
2018-10-11T00:04:58.782Z,90.80
2018-10-11T00:07:26.148Z,99.00
2018-10-11T00:09:53.564Z,93.33
2018-10-11T00:12:20.846Z,102.50
2018-10-11T00:14:48.207Z,95.10
2018-10-11T00:17:15.685Z,92.33
2018-10-11T00:19:42.972Z,91.30
2018-10-11T00:22:10.302Z,84.33
2018-10-11T00:24:37.725Z,92.23
2018-10-11T00:27:05.007Z,92.57
2018-10-11T00:29:32.281Z,88.33
2018-10-11T00:31:59.710Z,91.27
2018-10-11T00:34:27.039Z,90.50
2018-10-11T00:36:54.393Z,93.77
2018-10-11T00:39:21.956Z,90.17
2018-10-11T00:41:49.825Z,97.83
2018-10-11T00:44:17.150Z,94.33
2018-10-11T00:46:45.887Z,98.43
2018-10-11T00:49:13.228Z,93.10
2018-10-11T00:51:40.543Z,94.03
2018-10-11T00:54:08.416Z,101.27
2018-10-11T00:56:35.723Z,104.50
2018-10-11T00:59:03.048Z,107.33
2018-10-11T01:01:30.486Z,100.83
2018-10-11T01:03:57.780Z,91.10
2018-10-11T01:06:26.056Z,98.80
2018-10-11T01:08:53.486Z,101.57
2018-10-11T01:11:20.829Z,96.17
2018-10-11T01:13:48.135Z,102.67
2018-10-11T01:16:15.551Z,105.83
2018-10-11T01:18:42.915Z,117.97
2018-10-11T01:21:10.403Z,105.37
2018-10-11T01:23:37.858Z,111.60
2018-10-11T01:26:05.205Z,101.00
2018-10-11T01:28:32.492Z,98.87
2018-10-11T01:31:05.612Z,108.30
2018-10-11T01:33:32.938Z,103.60
2018-10-11T01:36:00.272Z,104.67
2018-10-11T01:38:27.662Z,98.73
2018-10-11T01:40:55.107Z,97.37
2018-10-11T01:43:22.560Z,103.77
2018-10-11T01:45:49.929Z,103.27
2018-10-11T01:48:17.251Z,108.43
2018-10-11T01:50:44.543Z,108.10
2018-10-11T01:53:12.016Z,118.47
2018-10-11T01:55:39.408Z,115.67
2018-10-11T01:58:06.728Z,110.90
2018-10-11T02:00:34.052Z,110.33
2018-10-11T02:03:01.394Z,108.67
2018-10-11T02:05:28.910Z,101.37
2018-10-11T02:07:57.392Z,104.33
2018-10-11T02:10:25.772Z,105.97
2018-10-11T02:12:53.152Z,100.30
2018-10-11T02:15:20.708Z,108.73
2018-10-11T02:17:48.033Z,118.77
2018-10-11T02:20:15.356Z,105.00
2018-10-11T02:22:42.745Z,101.53
2018-10-11T02:25:11.066Z,110.00
2018-10-11T02:27:38.640Z,100.70
2018-10-11T02:30:06.269Z,107.67
2018-10-11T02:32:33.554Z,114.63
2018-10-11T02:35:00.844Z,107.83
2018-10-11T02:37:28.248Z,104.57
2018-10-11T02:39:55.981Z,111.30
2018-10-11T02:42:23.611Z,107.67
2018-10-11T02:44:51.051Z,115.50
2018-10-11T02:47:18.320Z,112.50
2018-10-11T02:49:45.725Z,108.97
2018-10-11T02:52:13.154Z,97.93
2018-10-11T02:54:40.445Z,109.47
2018-10-11T02:57:18.255Z,115.63
2018-10-11T02:59:45.609Z,113.50
2018-10-11T03:02:14.194Z,102.83
2018-10-11T03:04:42.353Z,106.37
2018-10-11T03:07:10.643Z,109.50
2018-10-11T03:09:38.275Z,100.77
2018-10-11T03:12:05.771Z,102.30
2018-10-11T03:14:33.102Z,108.57
2018-10-11T03:17:00.456Z,99.80
2018-10-11T03:19:28.655Z,102.43
2018-10-11T03:21:56.032Z,107.27
2018-10-11T03:24:23.352Z,100.27
2018-10-11T03:26:53.092Z,103.03
2018-10-11T03:29:20.646Z,104.80
2018-10-11T03:31:47.954Z,96.07
2018-10-11T03:34:22.169Z,95.90
2018-10-11T03:36:49.444Z,104.40
2018-10-11T03:39:16.762Z,101.83
2018-10-11T03:41:44.214Z,93.97
2018-10-11T03:44:11.775Z,99.17
2018-10-11T03:46:39.608Z,98.73
2018-10-11T03:49:06.844Z,95.57
2018-10-11T03:51:34.190Z,89.83
2018-10-11T03:54:01.502Z,95.20
2018-10-11T03:56:28.916Z,88.57
2018-10-11T03:58:56.277Z,95.90
2018-10-11T04:01:23.673Z,83.70
2018-10-11T04:03:51.085Z,93.47
2018-10-11T04:06:18.371Z,90.80
2018-10-11T04:08:45.785Z,85.23
2018-10-11T04:11:13.288Z,90.47
2018-10-11T04:13:40.619Z,95.33
2018-10-11T04:16:07.907Z,90.97
2018-10-11T04:18:35.293Z,90.47
2018-10-11T04:21:02.614Z,87.67
2018-10-11T04:23:30.766Z,98.90
2018-10-11T04:25:59.019Z,90.23
2018-10-11T04:28:27.542Z,91.20
2018-10-11T04:30:55.500Z,83.30
2018-10-11T04:33:22.978Z,90.03
2018-10-11T04:35:50.276Z,86.50
2018-10-11T04:38:17.648Z,84.97
2018-10-11T04:40:44.988Z,91.70
2018-10-11T04:43:12.877Z,88.97
2018-10-11T04:45:40.904Z,90.87
2018-10-11T04:48:08.382Z,93.17
2018-10-11T04:50:35.667Z,90.30
2018-10-11T04:53:03.016Z,90.37
2018-10-11T04:55:30.456Z,89.60
2018-10-11T04:57:57.849Z,93.43
2018-10-11T05:00:25.867Z,93.67
2018-10-11T05:02:53.276Z,92.57
2018-10-11T05:05:20.623Z,88.23
2018-10-11T05:07:47.888Z,83.47
2018-10-11T05:10:15.340Z,89.23
2018-10-11T05:12:42.676Z,90.00
2018-10-11T05:15:10.140Z,84.40
2018-10-11T05:17:37.532Z,94.13
2018-10-11T05:20:05.479Z,96.23
2018-10-11T05:22:32.771Z,93.13
2018-10-11T05:25:00.357Z,92.77
2018-10-11T05:27:27.667Z,88.17
2018-10-11T05:29:54.993Z,93.37
2018-10-11T05:32:22.479Z,100.10
2018-10-11T05:34:49.850Z,93.27
2018-10-11T05:37:17.155Z,93.07
2018-10-11T05:39:44.726Z,92.30
2018-10-11T05:42:12.419Z,89.33
2018-10-11T05:44:40.447Z,88.37
2018-10-11T05:47:07.922Z,93.93
2018-10-11T05:49:35.282Z,95.97
2018-10-11T05:52:03.525Z,89.13
2018-10-11T05:54:30.972Z,83.77
2018-10-11T05:56:58.333Z,85.40
2018-10-11T05:59:25.736Z,84.43
2018-10-11T06:01:53.526Z,82.03
2018-10-11T06:04:20.957Z,79.70
2018-10-11T06:06:48.775Z,77.40
2018-10-11T06:09:16.419Z,76.47
2018-10-11T06:11:44.429Z,77.13
2018-10-11T06:14:12.334Z,72.40
2018-10-11T06:16:39.883Z,83.27
2018-10-11T06:19:07.325Z,70.90
2018-10-11T06:21:34.751Z,73.90
2018-10-11T06:24:02.219Z,74.43
2018-10-11T06:26:29.662Z,74.77
2018-10-11T06:28:57.319Z,72.40
2018-10-11T06:31:24.895Z,71.20
2018-10-11T06:33:52.290Z,69.00
2018-10-11T06:36:19.888Z,67.93
2018-10-11T06:38:47.490Z,64.40
2018-10-11T06:41:15.100Z,68.33
2018-10-11T06:43:42.578Z,73.73
2018-10-11T06:46:10.183Z,66.17
2018-10-11T06:48:37.683Z,63.80
2018-10-11T06:51:05.108Z,64.53
2018-10-11T06:53:32.540Z,65.73
2018-10-11T06:56:06.703Z,66.33
2018-10-11T06:58:34.031Z,60.80
2018-10-11T07:01:01.531Z,62.53
2018-10-11T07:03:28.828Z,63.47
2018-10-11T07:05:56.261Z,62.70
2018-10-11T07:08:23.608Z,62.23
2018-10-11T07:10:50.929Z,62.97
2018-10-11T07:13:18.407Z,59.43
2018-10-11T07:15:45.700Z,60.53
2018-10-11T07:18:13.061Z,60.63
2018-10-11T07:20:40.516Z,59.17
2018-10-11T07:23:08.343Z,58.13
2018-10-11T07:25:35.753Z,58.47
2018-10-11T07:28:03.506Z,57.00
2018-10-11T07:30:30.911Z,60.97
2018-10-11T07:32:58.296Z,63.07
2018-10-11T07:35:25.910Z,55.90
2018-10-11T07:37:53.174Z,53.37
2018-10-11T07:40:20.509Z,58.60
2018-10-11T07:42:47.876Z,54.80
2018-10-11T07:45:15.253Z,57.13
2018-10-11T07:47:42.644Z,53.80
2018-10-11T07:50:10.054Z,52.50
2018-10-11T07:52:37.332Z,53.70
2018-10-11T07:55:04.662Z,57.07
2018-10-11T07:57:32.069Z,53.10
2018-10-11T07:59:59.345Z,50.60
2018-10-11T08:02:26.650Z,54.80
2018-10-11T08:04:54.107Z,50.93
2018-10-11T08:07:21.415Z,54.27
2018-10-11T08:09:48.761Z,46.73
2018-10-11T08:12:16.288Z,50.60
2018-10-11T08:14:43.648Z,50.17
2018-10-11T08:17:12.158Z,48.47
2018-10-11T08:19:39.301Z,47.00
2018-10-11T08:22:06.622Z,48.83
2018-10-11T08:24:33.906Z,46.57
2018-10-11T08:27:01.817Z,46.77
2018-10-11T08:29:29.156Z,46.97
2018-10-11T08:31:56.509Z,45.57
2018-10-11T08:34:23.899Z,51.23
2018-10-11T08:36:51.178Z,44.63
2018-10-11T08:39:18.521Z,45.53
2018-10-11T08:41:45.938Z,45.13
2018-10-11T08:44:13.283Z,43.80
2018-10-11T08:46:40.747Z,46.27
2018-10-11T08:49:08.256Z,43.47
2018-10-11T08:51:35.714Z,41.97
2018-10-11T08:54:08.954Z,42.67
2018-10-11T08:56:36.256Z,45.87
2018-10-11T08:59:03.710Z,39.87
2018-10-11T09:01:31.141Z,37.47
2018-10-11T09:03:58.656Z,43.87
2018-10-11T09:06:25.801Z,41.57
2018-10-11T09:08:53.994Z,40.73
2018-10-11T09:11:21.356Z,39.20
2018-10-11T09:13:48.635Z,39.47
2018-10-11T09:16:16.222Z,36.13
2018-10-11T09:18:43.548Z,35.30
2018-10-11T09:21:10.882Z,36.37
2018-10-11T09:23:38.415Z,31.13
2018-10-11T09:26:05.825Z,29.57
2018-10-11T09:28:33.864Z,32.27
2018-10-11T09:31:01.423Z,32.97
2018-10-11T09:33:28.705Z,27.73
2018-10-11T09:35:55.971Z,33.67
2018-10-11T09:38:23.451Z,29.63
2018-10-11T09:40:50.727Z,26.97
2018-10-11T09:43:18.003Z,26.53
2018-10-11T09:45:45.417Z,22.77
2018-10-11T09:48:12.824Z,22.90
2018-10-11T09:50:40.165Z,24.70
2018-10-11T09:53:07.633Z,21.73
2018-10-11T09:55:34.958Z,18.33
2018-10-11T09:58:02.482Z,20.07
2018-10-11T10:00:37.207Z,16.70
2018-10-11T10:03:04.686Z,18.30
2018-10-11T10:05:32.030Z,19.70
2018-10-11T10:07:59.363Z,19.33
2018-10-11T10:10:27.092Z,14.33
2018-10-11T10:12:54.473Z,15.20
2018-10-11T10:15:21.917Z,15.43
2018-10-11T10:17:49.259Z,18.83
2018-10-11T10:20:16.575Z,15.50
2018-10-11T10:22:43.972Z,18.10
2018-10-11T10:25:11.242Z,14.23
2018-10-11T10:27:38.564Z,12.67
2018-10-11T10:30:12.092Z,15.00
2018-10-11T10:32:39.559Z,11.43
2018-10-11T10:35:07.033Z,13.07
2018-10-11T10:37:34.496Z,9.87
2018-10-11T10:40:01.847Z,10.83
2018-10-11T10:42:29.100Z,9.60
2018-10-11T10:44:56.659Z,8.73
2018-10-11T10:47:24.142Z,8.53
2018-10-11T10:49:51.553Z,10.77
2018-10-11T10:52:19.230Z,8.23
2018-10-11T10:54:46.571Z,11.57
2018-10-11T10:57:13.855Z,7.00
2018-10-11T10:59:41.391Z,12.17
2018-10-11T11:02:08.704Z,7.83
2018-10-11T11:04:36.017Z,8.17
2018-10-11T11:07:03.523Z,9.37
2018-10-11T11:09:30.797Z,8.93
2018-10-11T11:11:58.079Z,9.57
2018-10-11T11:16:59.705Z,9.50
2018-10-11T11:19:27.123Z,7.47
2018-10-11T11:21:54.714Z,9.90
2018-10-11T11:24:22.097Z,11.53
2018-10-11T11:26:49.460Z,11.60
2018-10-11T11:29:16.836Z,11.07
2018-10-11T11:31:58.494Z,9.80
2018-10-11T11:34:28.610Z,9.27
2018-10-11T11:37:22.692Z,16.17
2018-10-11T11:39:50.030Z,11.47
2018-10-11T11:42:17.522Z,12.73
2018-10-11T11:44:44.888Z,13.13
2018-10-11T11:47:12.251Z,14.67
2018-10-11T11:49:39.696Z,14.53
2018-10-11T11:52:07.158Z,13.20
2018-10-11T11:54:34.651Z,13.47
2018-10-11T11:57:01.995Z,14.00
2018-10-11T11:59:29.343Z,15.03
2018-10-11T12:01:56.692Z,13.30
2018-10-11T12:04:24.279Z,14.60
2018-10-11T12:06:54.452Z,14.93
2018-10-11T12:09:21.988Z,14.83
2018-10-11T12:11:49.397Z,17.27
2018-10-11T12:14:16.775Z,16.23
2018-10-11T12:16:44.213Z,17.87
2018-10-11T12:19:11.932Z,17.00
2018-10-11T12:21:39.650Z,16.40
2018-10-11T12:24:07.004Z,14.17
2018-10-11T12:26:34.580Z,15.30
2018-10-11T12:29:01.983Z,15.63
2018-10-11T12:31:29.328Z,17.77
2018-10-11T12:34:21.001Z,26.30
2018-10-11T12:36:55.070Z,17.30
2018-10-11T12:39:31.473Z,16.17
2018-10-11T12:41:58.444Z,17.80
2018-10-11T12:44:25.756Z,15.93
2018-10-11T12:46:53.213Z,14.47
2018-10-11T12:49:20.563Z,18.43
2018-10-11T12:51:47.988Z,16.33
2018-10-11T12:54:15.519Z,13.53
2018-10-11T12:56:45.356Z,13.57
2018-10-11T12:59:12.548Z,16.37
2018-10-11T13:01:40.103Z,17.30
2018-10-11T13:04:07.439Z,15.77
2018-10-11T13:06:34.767Z,17.63
2018-10-11T13:09:02.130Z,17.50
2018-10-11T13:11:29.547Z,16.10
2018-10-11T13:13:56.848Z,14.67
2018-10-11T13:16:24.320Z,16.20
2018-10-11T13:18:51.666Z,13.93
2018-10-11T13:21:19.122Z,13.03
2018-10-11T13:23:46.615Z,14.30
2018-10-11T13:26:13.942Z,15.30
2018-10-11T13:28:41.506Z,17.67
2018-10-11T13:31:09.004Z,14.30
2018-10-11T13:33:36.369Z,15.27
2018-10-11T13:36:03.674Z,13.70
2018-10-11T13:38:31.303Z,16.63
2018-10-11T13:41:02.269Z,13.70
2018-10-11T13:43:26.317Z,17.33
2018-10-11T13:45:58.088Z,16.90
2018-10-11T13:48:21.193Z,17.53
2018-10-11T13:50:48.548Z,12.90
2018-10-11T13:53:20.395Z,13.80
2018-10-11T13:55:46.939Z,14.60
2018-10-11T13:58:10.562Z,17.57
2018-10-11T14:00:38.091Z,14.23
2018-10-11T14:03:05.436Z,14.10
2018-10-11T14:05:32.830Z,14.90
2018-10-11T14:08:00.274Z,15.13
2018-10-11T14:10:27.615Z,15.63
2018-10-11T14:12:54.806Z,14.60
2018-10-11T14:15:22.427Z,15.40
2018-10-11T14:17:50.054Z,16.77
2018-10-11T14:20:17.256Z,17.07
2018-10-11T14:22:44.777Z,19.07
2018-10-11T14:25:12.077Z,17.27
2018-10-11T14:27:39.347Z,22.47
2018-10-11T14:30:07.032Z,21.53
2018-10-11T14:32:34.254Z,27.70
2018-10-11T14:35:01.722Z,18.70
2018-10-11T14:37:29.172Z,20.97
2018-10-11T14:39:56.454Z,17.77
2018-10-11T14:42:23.933Z,19.93
2018-10-11T14:44:51.473Z,18.10
2018-10-11T14:47:19.429Z,19.67
2018-10-11T14:49:46.729Z,21.57
2018-10-11T14:52:14.237Z,22.70
2018-10-11T14:54:41.594Z,22.40
2018-10-11T14:57:08.930Z,22.73
2018-10-11T14:59:40.073Z,21.67
2018-10-11T15:02:07.630Z,23.93
2018-10-11T15:04:34.918Z,23.57
2018-10-11T15:07:02.353Z,29.17
2018-10-11T15:09:29.680Z,30.13
2018-10-11T15:11:57.015Z,26.67
2018-10-11T15:14:24.936Z,24.03
2018-10-11T15:16:52.258Z,22.57
2018-10-11T15:19:19.523Z,25.47
2018-10-11T15:21:47.021Z,24.00
2018-10-11T15:24:15.146Z,27.83
2018-10-11T15:26:42.699Z,27.37
2018-10-11T15:29:10.244Z,25.17
2018-10-11T15:31:37.631Z,29.30
2018-10-11T15:34:05.013Z,28.07
2018-10-11T15:36:32.431Z,30.27
2018-10-11T15:38:59.764Z,31.67
2018-10-11T15:41:27.259Z,33.60
2018-10-11T15:43:54.679Z,33.20
2018-10-11T15:46:22.459Z,38.50
2018-10-11T15:48:49.808Z,34.10
2018-10-11T15:51:17.111Z,37.50
2018-10-11T15:53:45.496Z,36.10
2018-10-11T15:56:12.768Z,39.53
2018-10-11T15:58:40.259Z,56.20
2018-10-11T16:01:07.611Z,37.93
2018-10-11T16:03:34.996Z,42.10
2018-10-11T16:06:02.387Z,38.23
2018-10-11T16:08:29.684Z,40.50
2018-10-11T16:10:56.978Z,42.47
2018-10-11T16:13:24.419Z,41.50
2018-10-11T16:15:51.704Z,43.77
2018-10-11T16:18:19.012Z,41.37
2018-10-11T16:20:46.427Z,38.60
2018-10-11T16:23:13.700Z,43.47
2018-10-11T16:25:40.959Z,40.50
2018-10-11T16:28:08.304Z,38.83
2018-10-11T16:30:35.743Z,44.70
2018-10-11T16:33:03.111Z,41.50
2018-10-11T16:35:30.500Z,40.97
2018-10-11T16:37:58.283Z,42.37
2018-10-11T16:40:25.536Z,41.13
2018-10-11T16:42:52.907Z,36.90
2018-10-11T16:45:20.294Z,37.90
2018-10-11T16:47:47.609Z,47.03
2018-10-11T16:50:15.090Z,40.40
2018-10-11T16:52:42.373Z,44.13
2018-10-11T16:55:09.732Z,40.60
2018-10-11T16:57:37.050Z,37.93
2018-10-11T17:00:04.831Z,36.83
2018-10-11T17:02:32.625Z,43.57
2018-10-11T17:05:00.302Z,42.27
2018-10-11T17:07:27.868Z,41.43
2018-10-11T17:09:55.273Z,36.53
2018-10-11T17:12:22.548Z,35.80
2018-10-11T17:14:49.868Z,36.17
2018-10-11T17:17:17.126Z,36.77
2018-10-11T17:19:44.499Z,38.67
2018-10-11T17:22:11.941Z,38.37
2018-10-11T17:24:40.378Z,40.30
2018-10-11T17:27:09.906Z,39.77
2018-10-11T17:29:37.921Z,37.00
2018-10-11T17:32:05.959Z,41.50
2018-10-11T17:34:34.353Z,36.77
2018-10-11T17:37:06.264Z,35.83
2018-10-11T17:39:34.826Z,40.27
2018-10-11T17:42:03.925Z,34.20
2018-10-11T17:44:31.212Z,33.60
2018-10-11T17:46:58.660Z,39.90
2018-10-11T17:49:27.854Z,39.20
2018-10-11T17:51:55.751Z,36.83
2018-10-11T17:54:23.287Z,37.53
2018-10-11T17:56:52.037Z,37.10
2018-10-11T17:59:22.360Z,37.73
2018-10-11T18:01:49.849Z,34.77
2018-10-11T18:04:18.009Z,38.30
2018-10-11T18:06:46.309Z,38.73
2018-10-11T18:09:13.864Z,38.80
2018-10-11T18:11:41.553Z,39.03
2018-10-11T18:14:11.102Z,42.87
2018-10-11T18:16:38.846Z,37.13
2018-10-11T18:19:06.156Z,38.90
2018-10-11T18:21:34.367Z,37.77
2018-10-11T18:24:01.859Z,36.80
2018-10-11T18:26:29.133Z,41.23
2018-10-11T18:28:57.340Z,39.00
2018-10-11T18:31:24.691Z,39.97
2018-10-11T18:33:52.110Z,43.90
2018-10-11T18:36:19.357Z,39.23
2018-10-11T18:38:48.834Z,39.40
2018-10-11T18:41:16.167Z,42.57
2018-10-11T18:43:43.515Z,47.90
2018-10-11T18:46:15.088Z,39.70
2018-10-11T18:48:43.096Z,43.47
2018-10-11T18:51:15.306Z,42.00
2018-10-11T18:53:43.164Z,42.37
2018-10-11T18:56:13.099Z,39.33
2018-10-11T18:58:40.951Z,42.87
2018-10-11T19:01:09.260Z,38.90
2018-10-11T19:03:37.392Z,40.83
2018-10-11T19:06:05.061Z,41.57
2018-10-11T19:08:32.361Z,42.10
2018-10-11T19:10:59.879Z,40.97
2018-10-11T19:13:27.371Z,39.33
2018-10-11T19:15:57.479Z,39.03
2018-10-11T19:18:24.783Z,39.77
2018-10-11T19:20:52.230Z,39.13
2018-10-11T19:23:20.252Z,46.27
2018-10-11T19:25:48.391Z,38.43
2018-10-11T19:28:15.907Z,41.17
2018-10-11T19:30:43.191Z,36.90
2018-10-11T19:33:10.452Z,41.07
2018-10-11T19:35:38.008Z,38.00
2018-10-11T19:38:07.468Z,36.27
2018-10-11T19:40:36.560Z,43.00
2018-10-11T19:43:04.076Z,37.33
2018-10-11T19:45:31.470Z,37.17
2018-10-11T19:47:58.789Z,35.17
2018-10-11T19:50:26.353Z,36.20
2018-10-11T19:52:53.684Z,38.43
2018-10-11T19:55:21.006Z,42.00
2018-10-11T19:57:48.438Z,38.13
2018-10-11T20:00:15.716Z,37.97
2018-10-11T20:02:43.011Z,39.00
2018-10-11T20:05:10.445Z,37.80
2018-10-11T20:07:37.977Z,39.27
2018-10-11T20:10:05.513Z,37.63
2018-10-11T20:12:33.604Z,37.57
2018-10-11T20:15:01.244Z,38.50
2018-10-11T20:17:28.750Z,39.67
2018-10-11T20:19:56.139Z,38.67
2018-10-11T20:22:23.450Z,42.97
2018-10-11T20:24:50.765Z,37.77
2018-10-11T20:27:18.140Z,41.33
2018-10-11T20:29:45.417Z,34.80
2018-10-11T20:32:12.702Z,36.57
2018-10-11T20:34:40.071Z,37.50
2018-10-11T20:37:07.335Z,36.73
2018-10-11T20:39:34.663Z,39.70
2018-10-11T20:42:02.091Z,41.27
2018-10-11T20:44:29.421Z,36.47
2018-10-11T20:46:56.695Z,41.13
2018-10-11T20:49:24.161Z,36.47
2018-10-11T20:51:51.658Z,41.53
2018-10-11T20:54:19.107Z,41.27
2018-10-11T20:56:46.478Z,39.00
2018-10-11T20:59:13.750Z,38.43
2018-10-11T21:01:41.031Z,36.53
2018-10-11T21:04:08.337Z,36.37
2018-10-11T21:06:35.652Z,35.70
2018-10-11T21:09:03.748Z,37.63
2018-10-11T21:11:31.106Z,36.57
2018-10-11T21:13:58.368Z,36.70
2018-10-11T21:16:25.680Z,36.13
2018-10-11T21:18:53.131Z,33.53
2018-10-11T21:21:20.423Z,41.13
2018-10-11T21:23:47.724Z,37.63
2018-10-11T21:26:15.090Z,39.13
2018-10-11T21:28:42.349Z,37.53
2018-10-11T21:31:09.634Z,36.33
2018-10-11T21:33:37.136Z,40.30
2018-10-11T21:36:04.624Z,41.50
2018-10-11T21:38:31.904Z,37.73
2018-10-11T21:40:59.270Z,40.37
2018-10-11T21:43:26.721Z,40.00
2018-10-11T21:45:53.987Z,37.93
2018-10-11T21:48:21.445Z,33.87
2018-10-11T21:50:48.734Z,39.80
2018-10-11T21:53:16.001Z,43.10
2018-10-11T21:55:43.386Z,37.97
2018-10-11T21:58:10.630Z,38.73
2018-10-11T22:00:43.744Z,38.60
2018-10-11T22:03:11.067Z,41.83
2018-10-11T22:05:38.553Z,37.23
2018-10-11T22:08:05.907Z,37.63
2018-10-11T22:10:33.268Z,37.13
2018-10-11T22:13:00.600Z,37.70
2018-10-11T22:15:28.100Z,40.63
2018-10-11T22:17:55.420Z,37.23
2018-10-11T22:20:22.776Z,36.03
2018-10-11T22:22:50.215Z,34.30
2018-10-11T22:25:17.515Z,35.27
2018-10-11T22:27:44.781Z,38.60
2018-10-11T22:30:12.098Z,36.70
2018-10-11T22:32:39.546Z,38.57
2018-10-11T22:35:06.813Z,38.27
2018-10-11T22:37:34.139Z,35.70
2018-10-11T22:40:01.429Z,38.47
2018-10-11T22:42:28.721Z,36.07
2018-10-11T22:44:56.124Z,36.53
2018-10-11T22:47:23.527Z,38.23
2018-10-11T22:49:50.825Z,36.33
2018-10-11T22:52:18.265Z,36.73
2018-10-11T22:54:45.559Z,40.00
2018-10-11T22:57:12.880Z,33.03
2018-10-11T22:59:40.379Z,37.07
2018-10-11T23:02:07.683Z,37.97
2018-10-11T23:04:34.934Z,36.50
2018-10-11T23:07:02.347Z,35.17
2018-10-11T23:09:29.674Z,33.10
2018-10-11T23:11:56.941Z,34.20
2018-10-11T23:14:24.370Z,34.37
2018-10-11T23:16:51.616Z,37.60
2018-10-11T23:19:18.971Z,34.10
2018-10-11T23:21:46.464Z,32.07
2018-10-11T23:24:13.770Z,31.53
2018-10-11T23:26:41.070Z,33.00
2018-10-11T23:29:08.470Z,33.50
2018-10-11T23:31:35.762Z,33.10
2018-10-11T23:34:03.076Z,34.13
2018-10-11T23:36:30.480Z,31.87
2018-10-11T23:38:57.788Z,29.83
2018-10-11T23:41:25.113Z,32.90
2018-10-11T23:43:52.518Z,32.67
2018-10-11T23:46:19.831Z,31.63
2018-10-11T23:48:47.128Z,30.83
2018-10-11T23:51:14.494Z,31.27
2018-10-11T23:53:41.769Z,33.80
2018-10-11T23:56:09.059Z,29.17
2018-10-11T23:58:36.352Z,31.33
